sensor_id;sensor_type;location;lat;lon;timestamp;temperature;humidity
18229;DHT22;9239;50.932;3.142;2022-11-20T00:01:09;5.70;99.90
18229;DHT22;9239;50.932;3.142;2022-11-20T00:03:36;5.80;99.90
18229;DHT22;9239;50.932;3.142;2022-11-20T00:06:05;5.80;99.90
18229;DHT22;9239;50.932;3.142;2022-11-20T00:08:39;5.80;99.90
18229;DHT22;9239;50.932;3.142;2022-11-20T00:11:06;5.80;99.90
18229;DHT22;9239;50.932;3.142;2022-11-20T00:13:33;5.80;99.90
18229;DHT22;9239;50.932;3.142;2022-11-20T00:16:02;5.80;99.90
18229;DHT22;9239;50.932;3.142;2022-11-20T00:18:32;5.80;99.90
18229;DHT22;9239;50.932;3.142;2022-11-20T00:21:02;5.90;99.90
18229;DHT22;9239;50.932;3.142;2022-11-20T00:23:30;5.80;99.90
18229;DHT22;9239;50.932;3.142;2022-11-20T00:26:00;5.80;99.90
18229;DHT22;9239;50.932;3.142;2022-11-20T00:28:27;5.80;99.90
18229;DHT22;9239;50.932;3.142;2022-11-20T00:31:00;5.80;99.90
18229;DHT22;9239;50.932;3.142;2022-11-20T00:33:28;5.80;99.90
18229;DHT22;9239;50.932;3.142;2022-11-20T00:36:00;5.90;99.90
18229;DHT22;9239;50.932;3.142;2022-11-20T00:38:28;5.80;99.90
18229;DHT22;9239;50.932;3.142;2022-11-20T00:40:57;5.80;99.90
18229;DHT22;9239;50.932;3.142;2022-11-20T00:43:27;5.90;99.90
18229;DHT22;9239;50.932;3.142;2022-11-20T00:45:57;5.90;99.90
18229;DHT22;9239;50.932;3.142;2022-11-20T00:48:24;5.80;99.90
18229;DHT22;9239;50.932;3.142;2022-11-20T00:50:51;5.80;99.90
18229;DHT22;9239;50.932;3.142;2022-11-20T00:53:20;5.80;99.90
18229;DHT22;9239;50.932;3.142;2022-11-20T00:55:54;5.80;99.90
18229;DHT22;9239;50.932;3.142;2022-11-20T00:58:23;5.80;99.90
18229;DHT22;9239;50.932;3.142;2022-11-20T01:00:50;5.90;99.90
18229;DHT22;9239;50.932;3.142;2022-11-20T01:03:18;5.90;99.90
18229;DHT22;9239;50.932;3.142;2022-11-20T01:05:45;5.90;99.90
18229;DHT22;9239;50.932;3.142;2022-11-20T01:08:11;5.80;99.90
18229;DHT22;9239;50.932;3.142;2022-11-20T01:10:40;5.90;99.90
18229;DHT22;9239;50.932;3.142;2022-11-20T01:13:07;5.90;99.90
18229;DHT22;9239;50.932;3.142;2022-11-20T01:15:51;5.90;99.90
18229;DHT22;9239;50.932;3.142;2022-11-20T01:18:18;6.00;99.90
18229;DHT22;9239;50.932;3.142;2022-11-20T01:20:45;6.00;99.90
18229;DHT22;9239;50.932;3.142;2022-11-20T01:23:12;6.00;99.90
18229;DHT22;9239;50.932;3.142;2022-11-20T01:25:40;6.00;99.90
18229;DHT22;9239;50.932;3.142;2022-11-20T01:28:07;6.00;99.90
18229;DHT22;9239;50.932;3.142;2022-11-20T01:30:33;6.00;99.90
18229;DHT22;9239;50.932;3.142;2022-11-20T01:33:00;6.00;99.90
18229;DHT22;9239;50.932;3.142;2022-11-20T01:35:27;6.00;99.90
18229;DHT22;9239;50.932;3.142;2022-11-20T01:37:54;6.10;99.90
18229;DHT22;9239;50.932;3.142;2022-11-20T01:40:21;6.10;99.90
18229;DHT22;9239;50.932;3.142;2022-11-20T01:42:58;6.10;99.90
18229;DHT22;9239;50.932;3.142;2022-11-20T01:45:59;6.10;99.90
18229;DHT22;9239;50.932;3.142;2022-11-20T01:48:30;6.20;99.90
18229;DHT22;9239;50.932;3.142;2022-11-20T01:50:59;6.20;99.90
18229;DHT22;9239;50.932;3.142;2022-11-20T01:53:32;6.10;99.90
18229;DHT22;9239;50.932;3.142;2022-11-20T01:56:01;6.10;99.90
18229;DHT22;9239;50.932;3.142;2022-11-20T01:58:34;6.10;99.90
18229;DHT22;9239;50.932;3.142;2022-11-20T02:01:02;6.10;99.90
18229;DHT22;9239;50.932;3.142;2022-11-20T02:03:30;6.10;99.90
18229;DHT22;9239;50.932;3.142;2022-11-20T02:06:02;6.00;99.90
18229;DHT22;9239;50.932;3.142;2022-11-20T02:08:31;6.00;99.90
18229;DHT22;9239;50.932;3.142;2022-11-20T02:10:58;6.00;99.90
18229;DHT22;9239;50.932;3.142;2022-11-20T02:13:25;6.10;99.90
18229;DHT22;9239;50.932;3.142;2022-11-20T02:16:21;6.00;99.90
18229;DHT22;9239;50.932;3.142;2022-11-20T02:18:49;6.00;99.90
18229;DHT22;9239;50.932;3.142;2022-11-20T02:21:30;6.00;99.90
18229;DHT22;9239;50.932;3.142;2022-11-20T02:24:11;6.00;99.90
18229;DHT22;9239;50.932;3.142;2022-11-20T02:26:44;6.10;99.90
18229;DHT22;9239;50.932;3.142;2022-11-20T02:29:13;6.10;99.90
18229;DHT22;9239;50.932;3.142;2022-11-20T02:31:41;6.10;99.90
18229;DHT22;9239;50.932;3.142;2022-11-20T02:34:09;6.20;99.90
18229;DHT22;9239;50.932;3.142;2022-11-20T02:36:39;6.20;99.90
18229;DHT22;9239;50.932;3.142;2022-11-20T02:39:07;6.10;99.90
18229;DHT22;9239;50.932;3.142;2022-11-20T02:41:37;6.10;99.90
18229;DHT22;9239;50.932;3.142;2022-11-20T02:44:04;6.10;99.90
18229;DHT22;9239;50.932;3.142;2022-11-20T02:46:32;6.10;99.90
18229;DHT22;9239;50.932;3.142;2022-11-20T02:49:00;6.10;99.90
18229;DHT22;9239;50.932;3.142;2022-11-20T02:51:27;6.00;99.90
18229;DHT22;9239;50.932;3.142;2022-11-20T02:53:53;6.00;99.90
18229;DHT22;9239;50.932;3.142;2022-11-20T02:56:20;6.00;99.90
18229;DHT22;9239;50.932;3.142;2022-11-20T02:58:49;6.00;99.90
18229;DHT22;9239;50.932;3.142;2022-11-20T03:01:15;5.90;99.90
18229;DHT22;9239;50.932;3.142;2022-11-20T03:03:42;5.90;99.90
18229;DHT22;9239;50.932;3.142;2022-11-20T03:06:09;5.90;99.90
18229;DHT22;9239;50.932;3.142;2022-11-20T03:08:39;5.90;99.90
18229;DHT22;9239;50.932;3.142;2022-11-20T03:11:14;5.90;99.90
18229;DHT22;9239;50.932;3.142;2022-11-20T03:13:40;5.80;99.90
18229;DHT22;9239;50.932;3.142;2022-11-20T03:16:15;5.90;99.90
18229;DHT22;9239;50.932;3.142;2022-11-20T03:18:44;5.90;99.90
18229;DHT22;9239;50.932;3.142;2022-11-20T03:21:23;5.90;99.90
18229;DHT22;9239;50.932;3.142;2022-11-20T03:23:55;5.90;99.90
18229;DHT22;9239;50.932;3.142;2022-11-20T03:26:39;5.90;99.90
18229;DHT22;9239;50.932;3.142;2022-11-20T03:29:06;6.00;99.90
18229;DHT22;9239;50.932;3.142;2022-11-20T03:31:36;5.90;99.90
18229;DHT22;9239;50.932;3.142;2022-11-20T03:34:06;5.90;99.90
18229;DHT22;9239;50.932;3.142;2022-11-20T03:36:33;5.90;99.90
18229;DHT22;9239;50.932;3.142;2022-11-20T03:39:00;5.80;99.90
18229;DHT22;9239;50.932;3.142;2022-11-20T03:41:28;5.80;99.90
18229;DHT22;9239;50.932;3.142;2022-11-20T03:43:56;5.80;99.90
18229;DHT22;9239;50.932;3.142;2022-11-20T03:46:24;5.80;99.90
18229;DHT22;9239;50.932;3.142;2022-11-20T03:48:53;5.80;99.90
18229;DHT22;9239;50.932;3.142;2022-11-20T03:51:22;5.80;99.90
18229;DHT22;9239;50.932;3.142;2022-11-20T03:53:51;5.70;99.90
18229;DHT22;9239;50.932;3.142;2022-11-20T03:56:20;5.70;99.90
18229;DHT22;9239;50.932;3.142;2022-11-20T03:58:48;5.80;99.90
18229;DHT22;9239;50.932;3.142;2022-11-20T04:01:17;5.70;99.90
18229;DHT22;9239;50.932;3.142;2022-11-20T04:03:45;5.80;99.90
18229;DHT22;9239;50.932;3.142;2022-11-20T04:06:15;5.80;99.90
18229;DHT22;9239;50.932;3.142;2022-11-20T04:08:42;5.80;99.90
18229;DHT22;9239;50.932;3.142;2022-11-20T04:11:10;5.70;99.90
18229;DHT22;9239;50.932;3.142;2022-11-20T04:13:37;5.70;99.90
18229;DHT22;9239;50.932;3.142;2022-11-20T04:16:05;5.80;99.90
18229;DHT22;9239;50.932;3.142;2022-11-20T04:18:33;5.80;99.90
18229;DHT22;9239;50.932;3.142;2022-11-20T04:21:00;5.80;99.90
18229;DHT22;9239;50.932;3.142;2022-11-20T04:23:28;5.80;99.90
18229;DHT22;9239;50.932;3.142;2022-11-20T04:26:01;5.80;99.90
18229;DHT22;9239;50.932;3.142;2022-11-20T04:28:28;5.80;99.90
18229;DHT22;9239;50.932;3.142;2022-11-20T04:31:01;5.90;99.90
18229;DHT22;9239;50.932;3.142;2022-11-20T04:33:28;5.90;99.90
18229;DHT22;9239;50.932;3.142;2022-11-20T04:36:00;5.90;99.90
18229;DHT22;9239;50.932;3.142;2022-11-20T04:38:29;5.90;99.90
18229;DHT22;9239;50.932;3.142;2022-11-20T04:40:57;5.90;99.90
18229;DHT22;9239;50.932;3.142;2022-11-20T04:43:24;5.90;99.90
18229;DHT22;9239;50.932;3.142;2022-11-20T04:45:51;5.90;99.90
18229;DHT22;9239;50.932;3.142;2022-11-20T04:48:18;5.90;99.90
18229;DHT22;9239;50.932;3.142;2022-11-20T04:50:45;5.90;99.90
18229;DHT22;9239;50.932;3.142;2022-11-20T04:53:12;6.00;99.90
18229;DHT22;9239;50.932;3.142;2022-11-20T04:55:40;6.00;99.90
18229;DHT22;9239;50.932;3.142;2022-11-20T04:58:07;5.90;99.90
18229;DHT22;9239;50.932;3.142;2022-11-20T05:00:34;6.00;99.90
18229;DHT22;9239;50.932;3.142;2022-11-20T05:03:01;6.00;99.90
18229;DHT22;9239;50.932;3.142;2022-11-20T05:05:28;5.90;99.90
18229;DHT22;9239;50.932;3.142;2022-11-20T05:07:56;6.00;99.90
18229;DHT22;9239;50.932;3.142;2022-11-20T05:10:23;6.00;99.90
18229;DHT22;9239;50.932;3.142;2022-11-20T05:12:51;6.00;99.90
18229;DHT22;9239;50.932;3.142;2022-11-20T05:15:19;6.00;99.90
18229;DHT22;9239;50.932;3.142;2022-11-20T05:17:47;6.10;99.90
18229;DHT22;9239;50.932;3.142;2022-11-20T05:20:14;6.10;99.90
18229;DHT22;9239;50.932;3.142;2022-11-20T05:22:41;6.10;99.90
18229;DHT22;9239;50.932;3.142;2022-11-20T05:25:08;6.10;99.90
18229;DHT22;9239;50.932;3.142;2022-11-20T05:27:35;6.10;99.90
18229;DHT22;9239;50.932;3.142;2022-11-20T05:30:04;6.10;99.90
18229;DHT22;9239;50.932;3.142;2022-11-20T05:32:31;6.10;99.90
18229;DHT22;9239;50.932;3.142;2022-11-20T05:34:58;6.10;99.90
18229;DHT22;9239;50.932;3.142;2022-11-20T05:37:25;6.10;99.90
18229;DHT22;9239;50.932;3.142;2022-11-20T05:39:52;6.10;99.90
18229;DHT22;9239;50.932;3.142;2022-11-20T05:42:19;6.10;99.90
18229;DHT22;9239;50.932;3.142;2022-11-20T05:44:59;6.20;99.90
18229;DHT22;9239;50.932;3.142;2022-11-20T05:47:28;6.10;99.90
18229;DHT22;9239;50.932;3.142;2022-11-20T05:49:58;6.20;99.90
18229;DHT22;9239;50.932;3.142;2022-11-20T05:52:27;6.20;99.90
18229;DHT22;9239;50.932;3.142;2022-11-20T05:54:54;6.20;99.90
18229;DHT22;9239;50.932;3.142;2022-11-20T05:57:21;6.20;99.90
18229;DHT22;9239;50.932;3.142;2022-11-20T05:59:48;6.10;99.90
18229;DHT22;9239;50.932;3.142;2022-11-20T06:02:14;6.20;99.90
18229;DHT22;9239;50.932;3.142;2022-11-20T06:04:43;6.20;99.90
18229;DHT22;9239;50.932;3.142;2022-11-20T06:07:09;6.20;99.90
18229;DHT22;9239;50.932;3.142;2022-11-20T06:09:36;6.20;99.90
18229;DHT22;9239;50.932;3.142;2022-11-20T06:12:04;6.20;99.90
18229;DHT22;9239;50.932;3.142;2022-11-20T06:14:31;6.20;99.90
18229;DHT22;9239;50.932;3.142;2022-11-20T06:16:58;6.20;99.90
18229;DHT22;9239;50.932;3.142;2022-11-20T06:19:24;6.10;99.90
18229;DHT22;9239;50.932;3.142;2022-11-20T06:21:53;6.10;99.90
18229;DHT22;9239;50.932;3.142;2022-11-20T06:24:19;6.20;99.90
18229;DHT22;9239;50.932;3.142;2022-11-20T06:26:46;6.20;99.90
18229;DHT22;9239;50.932;3.142;2022-11-20T06:29:13;6.20;99.90
18229;DHT22;9239;50.932;3.142;2022-11-20T06:31:40;6.20;99.90
18229;DHT22;9239;50.932;3.142;2022-11-20T06:34:08;6.20;99.90
18229;DHT22;9239;50.932;3.142;2022-11-20T06:36:35;6.30;99.90
18229;DHT22;9239;50.932;3.142;2022-11-20T06:39:03;6.30;99.90
18229;DHT22;9239;50.932;3.142;2022-11-20T06:41:30;6.30;99.90
18229;DHT22;9239;50.932;3.142;2022-11-20T06:43:56;6.40;99.90
18229;DHT22;9239;50.932;3.142;2022-11-20T06:46:23;6.40;99.90
18229;DHT22;9239;50.932;3.142;2022-11-20T06:48:50;6.40;99.90
18229;DHT22;9239;50.932;3.142;2022-11-20T06:51:17;6.30;99.90
18229;DHT22;9239;50.932;3.142;2022-11-20T06:53:44;6.30;99.90
18229;DHT22;9239;50.932;3.142;2022-11-20T06:56:13;6.40;99.90
18229;DHT22;9239;50.932;3.142;2022-11-20T06:58:40;6.40;99.90
18229;DHT22;9239;50.932;3.142;2022-11-20T07:01:10;6.40;99.90
18229;DHT22;9239;50.932;3.142;2022-11-20T07:03:37;6.40;99.90
18229;DHT22;9239;50.932;3.142;2022-11-20T07:06:05;6.50;99.90
18229;DHT22;9239;50.932;3.142;2022-11-20T07:08:33;6.50;99.90
18229;DHT22;9239;50.932;3.142;2022-11-20T07:11:01;6.50;99.90
18229;DHT22;9239;50.932;3.142;2022-11-20T07:13:31;6.50;99.90
18229;DHT22;9239;50.932;3.142;2022-11-20T07:15:59;6.60;99.90
18229;DHT22;9239;50.932;3.142;2022-11-20T07:18:27;6.60;99.90
18229;DHT22;9239;50.932;3.142;2022-11-20T07:20:54;6.60;99.90
18229;DHT22;9239;50.932;3.142;2022-11-20T07:23:21;6.50;99.90
18229;DHT22;9239;50.932;3.142;2022-11-20T07:25:48;6.60;99.90
18229;DHT22;9239;50.932;3.142;2022-11-20T07:28:15;6.50;99.90
18229;DHT22;9239;50.932;3.142;2022-11-20T07:30:48;6.50;99.90
18229;DHT22;9239;50.932;3.142;2022-11-20T07:33:15;6.50;99.90
18229;DHT22;9239;50.932;3.142;2022-11-20T07:35:42;6.50;99.90
18229;DHT22;9239;50.932;3.142;2022-11-20T07:38:09;6.50;99.90
18229;DHT22;9239;50.932;3.142;2022-11-20T07:40:36;6.50;99.90
18229;DHT22;9239;50.932;3.142;2022-11-20T07:43:02;6.60;99.90
18229;DHT22;9239;50.932;3.142;2022-11-20T07:45:29;6.60;99.90
18229;DHT22;9239;50.932;3.142;2022-11-20T07:47:58;6.60;99.90
18229;DHT22;9239;50.932;3.142;2022-11-20T07:50:25;6.60;99.90
18229;DHT22;9239;50.932;3.142;2022-11-20T07:52:52;6.60;99.90
18229;DHT22;9239;50.932;3.142;2022-11-20T07:55:26;6.60;99.90
18229;DHT22;9239;50.932;3.142;2022-11-20T07:57:54;6.60;99.90
18229;DHT22;9239;50.932;3.142;2022-11-20T08:00:22;6.70;99.90
18229;DHT22;9239;50.932;3.142;2022-11-20T08:02:49;6.70;99.90
18229;DHT22;9239;50.932;3.142;2022-11-20T08:05:17;6.70;99.90
18229;DHT22;9239;50.932;3.142;2022-11-20T08:07:44;6.80;99.90
18229;DHT22;9239;50.932;3.142;2022-11-20T08:10:13;6.80;99.90
18229;DHT22;9239;50.932;3.142;2022-11-20T08:12:44;6.80;99.90
18229;DHT22;9239;50.932;3.142;2022-11-20T08:15:29;6.80;99.90
18229;DHT22;9239;50.932;3.142;2022-11-20T08:18:03;6.90;99.90
18229;DHT22;9239;50.932;3.142;2022-11-20T08:20:32;6.90;99.90
18229;DHT22;9239;50.932;3.142;2022-11-20T08:23:00;7.00;99.90
18229;DHT22;9239;50.932;3.142;2022-11-20T08:25:28;7.00;99.90
18229;DHT22;9239;50.932;3.142;2022-11-20T08:27:57;7.00;99.90
18229;DHT22;9239;50.932;3.142;2022-11-20T08:30:24;7.00;99.90
18229;DHT22;9239;50.932;3.142;2022-11-20T08:32:51;7.10;99.90
18229;DHT22;9239;50.932;3.142;2022-11-20T08:35:18;7.10;99.90
18229;DHT22;9239;50.932;3.142;2022-11-20T08:37:47;7.10;99.90
18229;DHT22;9239;50.932;3.142;2022-11-20T08:40:14;7.20;99.90
18229;DHT22;9239;50.932;3.142;2022-11-20T08:42:46;7.20;99.90
18229;DHT22;9239;50.932;3.142;2022-11-20T08:45:14;7.20;99.90
18229;DHT22;9239;50.932;3.142;2022-11-20T08:47:41;7.20;99.90
18229;DHT22;9239;50.932;3.142;2022-11-20T08:50:08;7.30;99.90
18229;DHT22;9239;50.932;3.142;2022-11-20T08:52:35;7.40;99.90
18229;DHT22;9239;50.932;3.142;2022-11-20T08:55:06;7.40;99.90
18229;DHT22;9239;50.932;3.142;2022-11-20T08:57:33;7.40;99.90
18229;DHT22;9239;50.932;3.142;2022-11-20T09:00:00;7.40;99.90
18229;DHT22;9239;50.932;3.142;2022-11-20T09:02:27;7.60;99.90
18229;DHT22;9239;50.932;3.142;2022-11-20T09:04:54;7.60;99.90
18229;DHT22;9239;50.932;3.142;2022-11-20T09:07:21;7.70;99.90
18229;DHT22;9239;50.932;3.142;2022-11-20T09:09:48;7.80;99.90
18229;DHT22;9239;50.932;3.142;2022-11-20T09:12:16;7.80;99.90
18229;DHT22;9239;50.932;3.142;2022-11-20T09:14:43;7.80;99.90
18229;DHT22;9239;50.932;3.142;2022-11-20T09:17:10;7.90;99.90
18229;DHT22;9239;50.932;3.142;2022-11-20T09:19:39;7.90;99.90
18229;DHT22;9239;50.932;3.142;2022-11-20T09:22:06;7.90;99.90
18229;DHT22;9239;50.932;3.142;2022-11-20T09:24:33;7.90;99.90
18229;DHT22;9239;50.932;3.142;2022-11-20T09:27:04;8.00;99.90
18229;DHT22;9239;50.932;3.142;2022-11-20T09:29:33;8.10;99.90
18229;DHT22;9239;50.932;3.142;2022-11-20T09:32:00;8.20;99.90
18229;DHT22;9239;50.932;3.142;2022-11-20T09:34:26;8.20;99.90
18229;DHT22;9239;50.932;3.142;2022-11-20T09:36:57;8.30;99.90
18229;DHT22;9239;50.932;3.142;2022-11-20T09:39:24;8.30;99.90
18229;DHT22;9239;50.932;3.142;2022-11-20T09:45:02;8.50;99.90
18229;DHT22;9239;50.932;3.142;2022-11-20T09:47:41;8.50;99.90
18229;DHT22;9239;50.932;3.142;2022-11-20T09:50:23;8.50;99.90
18229;DHT22;9239;50.932;3.142;2022-11-20T09:53:02;8.60;99.90
18229;DHT22;9239;50.932;3.142;2022-11-20T09:55:31;8.60;99.90
18229;DHT22;9239;50.932;3.142;2022-11-20T09:57:59;8.70;99.90
18229;DHT22;9239;50.932;3.142;2022-11-20T10:00:28;8.70;99.90
18229;DHT22;9239;50.932;3.142;2022-11-20T10:03:02;8.70;99.90
18229;DHT22;9239;50.932;3.142;2022-11-20T10:05:35;8.80;99.90
18229;DHT22;9239;50.932;3.142;2022-11-20T10:08:14;8.90;99.90
18229;DHT22;9239;50.932;3.142;2022-11-20T10:10:45;8.90;99.90
18229;DHT22;9239;50.932;3.142;2022-11-20T10:13:20;8.90;99.90
18229;DHT22;9239;50.932;3.142;2022-11-20T10:16:02;8.90;99.90
18229;DHT22;9239;50.932;3.142;2022-11-20T10:18:43;9.00;99.90
18229;DHT22;9239;50.932;3.142;2022-11-20T10:21:21;9.10;99.90
18229;DHT22;9239;50.932;3.142;2022-11-20T10:24:20;9.30;99.90
18229;DHT22;9239;50.932;3.142;2022-11-20T10:26:53;9.40;99.90
18229;DHT22;9239;50.932;3.142;2022-11-20T10:29:32;9.40;99.90
18229;DHT22;9239;50.932;3.142;2022-11-20T10:32:03;9.30;99.90
18229;DHT22;9239;50.932;3.142;2022-11-20T10:34:35;9.30;99.90
18229;DHT22;9239;50.932;3.142;2022-11-20T10:37:09;9.30;99.90
18229;DHT22;9239;50.932;3.142;2022-11-20T10:39:42;9.20;99.90
18229;DHT22;9239;50.932;3.142;2022-11-20T10:42:14;8.90;99.90
18229;DHT22;9239;50.932;3.142;2022-11-20T10:44:47;8.70;99.90
18229;DHT22;9239;50.932;3.142;2022-11-20T10:47:31;8.60;99.90
18229;DHT22;9239;50.932;3.142;2022-11-20T10:50:02;8.40;99.90
18229;DHT22;9239;50.932;3.142;2022-11-20T10:52:35;8.30;99.90
18229;DHT22;9239;50.932;3.142;2022-11-20T10:55:12;8.20;99.90
18229;DHT22;9239;50.932;3.142;2022-11-20T10:57:52;8.10;99.90
18229;DHT22;9239;50.932;3.142;2022-11-20T11:00:21;8.00;99.90
18229;DHT22;9239;50.932;3.142;2022-11-20T11:02:53;8.10;99.90
18229;DHT22;9239;50.932;3.142;2022-11-20T11:05:29;8.00;99.90
18229;DHT22;9239;50.932;3.142;2022-11-20T11:07:59;8.00;99.90
18229;DHT22;9239;50.932;3.142;2022-11-20T11:10:33;8.00;99.90
18229;DHT22;9239;50.932;3.142;2022-11-20T11:13:02;8.00;99.90
18229;DHT22;9239;50.932;3.142;2022-11-20T11:15:37;8.00;99.90
18229;DHT22;9239;50.932;3.142;2022-11-20T11:18:09;8.00;99.90
18229;DHT22;9239;50.932;3.142;2022-11-20T11:20:36;8.00;99.90
18229;DHT22;9239;50.932;3.142;2022-11-20T11:23:03;8.00;99.90
18229;DHT22;9239;50.932;3.142;2022-11-20T11:25:32;8.10;99.90
18229;DHT22;9239;50.932;3.142;2022-11-20T11:28:01;8.10;99.90
18229;DHT22;9239;50.932;3.142;2022-11-20T11:30:29;8.00;99.90
18229;DHT22;9239;50.932;3.142;2022-11-20T11:33:08;8.00;99.90
18229;DHT22;9239;50.932;3.142;2022-11-20T11:35:44;8.00;99.90
18229;DHT22;9239;50.932;3.142;2022-11-20T11:38:14;7.90;99.90
18229;DHT22;9239;50.932;3.142;2022-11-20T11:40:43;7.90;99.90
18229;DHT22;9239;50.932;3.142;2022-11-20T11:43:18;8.00;99.90
18229;DHT22;9239;50.932;3.142;2022-11-20T11:46:00;8.00;99.90
18229;DHT22;9239;50.932;3.142;2022-11-20T11:48:28;8.00;99.90
18229;DHT22;9239;50.932;3.142;2022-11-20T11:50:55;8.10;99.90
18229;DHT22;9239;50.932;3.142;2022-11-20T11:53:24;8.10;99.90
18229;DHT22;9239;50.932;3.142;2022-11-20T11:55:58;8.00;99.90
18229;DHT22;9239;50.932;3.142;2022-11-20T11:58:39;8.00;99.90
18229;DHT22;9239;50.932;3.142;2022-11-20T12:01:20;8.00;99.90
18229;DHT22;9239;50.932;3.142;2022-11-20T12:03:55;8.10;99.90
18229;DHT22;9239;50.932;3.142;2022-11-20T12:06:23;8.10;99.90
18229;DHT22;9239;50.932;3.142;2022-11-20T12:08:53;8.10;99.90
18229;DHT22;9239;50.932;3.142;2022-11-20T12:11:29;8.20;99.90
18229;DHT22;9239;50.932;3.142;2022-11-20T12:13:58;8.20;99.90
18229;DHT22;9239;50.932;3.142;2022-11-20T12:16:34;8.20;99.90
18229;DHT22;9239;50.932;3.142;2022-11-20T12:19:08;8.20;99.90
18229;DHT22;9239;50.932;3.142;2022-11-20T12:21:44;8.20;99.90
18229;DHT22;9239;50.932;3.142;2022-11-20T12:24:37;8.20;99.90
18229;DHT22;9239;50.932;3.142;2022-11-20T12:27:25;8.30;99.90
18229;DHT22;9239;50.932;3.142;2022-11-20T12:30:00;8.30;99.90
18229;DHT22;9239;50.932;3.142;2022-11-20T12:32:59;8.40;99.90
18229;DHT22;9239;50.932;3.142;2022-11-20T12:35:42;8.40;99.90
18229;DHT22;9239;50.932;3.142;2022-11-20T12:38:38;8.40;99.90
18229;DHT22;9239;50.932;3.142;2022-11-20T12:41:13;8.40;99.90
18229;DHT22;9239;50.932;3.142;2022-11-20T12:44:12;8.40;99.90
18229;DHT22;9239;50.932;3.142;2022-11-20T12:47:14;8.40;99.90
18229;DHT22;9239;50.932;3.142;2022-11-20T12:49:53;8.40;99.90
18229;DHT22;9239;50.932;3.142;2022-11-20T12:52:37;8.40;99.90
18229;DHT22;9239;50.932;3.142;2022-11-20T12:55:23;8.50;99.90
18229;DHT22;9239;50.932;3.142;2022-11-20T12:57:59;8.40;99.90
18229;DHT22;9239;50.932;3.142;2022-11-20T13:00:31;8.50;99.90
18229;DHT22;9239;50.932;3.142;2022-11-20T13:03:21;8.50;99.90
18229;DHT22;9239;50.932;3.142;2022-11-20T13:06:00;8.50;99.90
18229;DHT22;9239;50.932;3.142;2022-11-20T13:08:34;8.50;99.90
18229;DHT22;9239;50.932;3.142;2022-11-20T13:11:09;8.60;99.90
18229;DHT22;9239;50.932;3.142;2022-11-20T13:13:47;8.60;99.90
18229;DHT22;9239;50.932;3.142;2022-11-20T13:16:24;8.60;99.90
18229;DHT22;9239;50.932;3.142;2022-11-20T13:18:53;8.70;99.90
18229;DHT22;9239;50.932;3.142;2022-11-20T13:21:23;8.70;99.90
18229;DHT22;9239;50.932;3.142;2022-11-20T13:24:05;8.70;99.90
18229;DHT22;9239;50.932;3.142;2022-11-20T13:26:35;8.90;99.90
18229;DHT22;9239;50.932;3.142;2022-11-20T13:29:09;9.00;99.90
18229;DHT22;9239;50.932;3.142;2022-11-20T13:31:41;9.20;99.90
18229;DHT22;9239;50.932;3.142;2022-11-20T13:34:22;9.30;99.90
18229;DHT22;9239;50.932;3.142;2022-11-20T13:36:55;9.40;99.90
18229;DHT22;9239;50.932;3.142;2022-11-20T13:39:27;9.50;99.90
18229;DHT22;9239;50.932;3.142;2022-11-20T13:41:57;9.60;99.90
18229;DHT22;9239;50.932;3.142;2022-11-20T13:44:29;9.60;99.90
18229;DHT22;9239;50.932;3.142;2022-11-20T13:46:57;9.80;99.90
18229;DHT22;9239;50.932;3.142;2022-11-20T13:49:27;9.80;99.90
18229;DHT22;9239;50.932;3.142;2022-11-20T13:52:05;9.90;99.90
18229;DHT22;9239;50.932;3.142;2022-11-20T13:54:58;10.10;99.90
18229;DHT22;9239;50.932;3.142;2022-11-20T13:57:43;10.30;99.90
18229;DHT22;9239;50.932;3.142;2022-11-20T14:00:16;10.30;99.90
18229;DHT22;9239;50.932;3.142;2022-11-20T14:02:44;10.30;99.90
18229;DHT22;9239;50.932;3.142;2022-11-20T14:05:22;10.30;99.90
18229;DHT22;9239;50.932;3.142;2022-11-20T14:07:51;10.30;99.90
18229;DHT22;9239;50.932;3.142;2022-11-20T14:10:25;10.30;99.90
18229;DHT22;9239;50.932;3.142;2022-11-20T14:12:52;10.30;99.90
18229;DHT22;9239;50.932;3.142;2022-11-20T14:15:28;10.30;99.90
18229;DHT22;9239;50.932;3.142;2022-11-20T14:17:56;10.30;99.90
18229;DHT22;9239;50.932;3.142;2022-11-20T14:20:25;10.30;99.90
18229;DHT22;9239;50.932;3.142;2022-11-20T14:22:54;10.30;99.90
18229;DHT22;9239;50.932;3.142;2022-11-20T14:25:24;10.30;99.90
18229;DHT22;9239;50.932;3.142;2022-11-20T14:27:58;10.30;99.90
18229;DHT22;9239;50.932;3.142;2022-11-20T14:30:29;10.20;99.90
18229;DHT22;9239;50.932;3.142;2022-11-20T14:33:03;10.20;99.90
18229;DHT22;9239;50.932;3.142;2022-11-20T14:35:31;10.20;99.90
18229;DHT22;9239;50.932;3.142;2022-11-20T14:38:01;10.20;99.90
18229;DHT22;9239;50.932;3.142;2022-11-20T14:40:31;10.10;99.90
18229;DHT22;9239;50.932;3.142;2022-11-20T14:43:01;10.10;99.90
18229;DHT22;9239;50.932;3.142;2022-11-20T14:45:28;10.10;99.90
18229;DHT22;9239;50.932;3.142;2022-11-20T14:47:56;10.20;99.90
18229;DHT22;9239;50.932;3.142;2022-11-20T14:50:25;10.20;99.90
18229;DHT22;9239;50.932;3.142;2022-11-20T14:52:55;10.20;99.90
18229;DHT22;9239;50.932;3.142;2022-11-20T14:55:31;10.30;99.90
18229;DHT22;9239;50.932;3.142;2022-11-20T14:58:00;10.30;99.90
18229;DHT22;9239;50.932;3.142;2022-11-20T15:00:28;10.30;99.90
18229;DHT22;9239;50.932;3.142;2022-11-20T15:02:55;10.30;99.90
18229;DHT22;9239;50.932;3.142;2022-11-20T15:05:25;10.30;99.90
18229;DHT22;9239;50.932;3.142;2022-11-20T15:08:05;10.30;99.90
18229;DHT22;9239;50.932;3.142;2022-11-20T15:10:34;10.30;99.90
18229;DHT22;9239;50.932;3.142;2022-11-20T15:13:04;10.30;99.90
18229;DHT22;9239;50.932;3.142;2022-11-20T15:15:36;10.30;99.90
18229;DHT22;9239;50.932;3.142;2022-11-20T15:18:11;10.40;99.90
18229;DHT22;9239;50.932;3.142;2022-11-20T15:20:39;10.40;99.90
18229;DHT22;9239;50.932;3.142;2022-11-20T15:23:10;10.30;99.90
18229;DHT22;9239;50.932;3.142;2022-11-20T15:25:39;10.30;99.90
18229;DHT22;9239;50.932;3.142;2022-11-20T15:28:16;10.20;99.90
18229;DHT22;9239;50.932;3.142;2022-11-20T15:30:43;10.20;99.90
18229;DHT22;9239;50.932;3.142;2022-11-20T15:33:11;10.10;99.90
18229;DHT22;9239;50.932;3.142;2022-11-20T15:35:39;10.00;99.90
18229;DHT22;9239;50.932;3.142;2022-11-20T15:38:06;10.00;99.90
18229;DHT22;9239;50.932;3.142;2022-11-20T15:40:32;10.00;99.90
18229;DHT22;9239;50.932;3.142;2022-11-20T15:43:01;9.90;99.90
18229;DHT22;9239;50.932;3.142;2022-11-20T15:45:35;9.80;99.90
18229;DHT22;9239;50.932;3.142;2022-11-20T15:48:03;9.70;99.90
18229;DHT22;9239;50.932;3.142;2022-11-20T15:50:36;9.70;99.90
18229;DHT22;9239;50.932;3.142;2022-11-20T15:53:03;9.70;99.90
18229;DHT22;9239;50.932;3.142;2022-11-20T15:55:30;9.70;99.90
18229;DHT22;9239;50.932;3.142;2022-11-20T15:57:57;9.60;99.90
18229;DHT22;9239;50.932;3.142;2022-11-20T16:00:26;9.60;99.90
18229;DHT22;9239;50.932;3.142;2022-11-20T16:02:52;9.50;99.90
18229;DHT22;9239;50.932;3.142;2022-11-20T16:05:19;9.40;99.90
18229;DHT22;9239;50.932;3.142;2022-11-20T16:07:48;9.50;99.90
18229;DHT22;9239;50.932;3.142;2022-11-20T16:10:16;9.40;99.90
18229;DHT22;9239;50.932;3.142;2022-11-20T16:12:43;9.30;99.90
18229;DHT22;9239;50.932;3.142;2022-11-20T16:15:37;9.20;99.90
18229;DHT22;9239;50.932;3.142;2022-11-20T16:18:16;9.20;99.90
18229;DHT22;9239;50.932;3.142;2022-11-20T16:20:44;9.20;99.90
18229;DHT22;9239;50.932;3.142;2022-11-20T16:23:11;9.10;99.90
18229;DHT22;9239;50.932;3.142;2022-11-20T16:25:38;9.10;99.90